You are not logged in, Click here to log in
ICAO: RCFN Country: 臺灣臺東縣臺東市
Latitude: 22.7571 Longitude: 121.106
Total Arrivals: 34 Total Departures: 45
Latest Arrival: FS02 (RCFN-RCFN)ALAN. LIU Latest Departure: FS02 (RCFN-RCFN)ALAN. LIU
Scenery:
METAR : RCFN 151300Z 31003KT 280V340 9999 FEW020 SCT050 BKN070 26/23 Q1008 NOSIG RMK A2978

臺東機場TTT